createdAt,value
2018-11-27T00:00:45.552Z,0.00
2018-11-27T00:01:45.541Z,0.00
2018-11-27T00:02:45.530Z,0.00
2018-11-27T00:03:45.539Z,0.00
2018-11-27T00:04:45.507Z,0.00
2018-11-27T00:05:45.492Z,0.00
2018-11-27T00:06:45.517Z,0.00
2018-11-27T00:07:45.470Z,0.00
2018-11-27T00:08:45.484Z,0.00
2018-11-27T00:09:45.447Z,0.00
2018-11-27T00:10:45.440Z,0.00
2018-11-27T00:11:45.424Z,0.00
2018-11-27T00:12:45.413Z,0.00
2018-11-27T00:13:45.442Z,0.00
2018-11-27T00:14:45.394Z,0.00
2018-11-27T00:15:45.381Z,0.00
2018-11-27T00:16:45.368Z,0.00
2018-11-27T00:17:45.356Z,0.00
2018-11-27T00:18:45.371Z,0.00
2018-11-27T00:19:45.334Z,0.00
2018-11-27T00:20:45.342Z,0.00
2018-11-27T00:21:45.311Z,0.00
2018-11-27T00:22:45.301Z,0.00
2018-11-27T00:23:45.318Z,0.00
2018-11-27T00:24:45.281Z,0.00
2018-11-27T00:25:45.265Z,0.00
2018-11-27T00:26:45.255Z,0.00
2018-11-27T00:27:45.259Z,0.00
2018-11-27T00:28:45.259Z,0.00
2018-11-27T00:29:45.223Z,0.00
2018-11-27T00:30:45.213Z,0.00
2018-11-27T00:31:45.198Z,0.00
2018-11-27T00:32:45.187Z,0.00
2018-11-27T00:33:45.218Z,0.00
2018-11-27T00:34:45.167Z,0.00
2018-11-27T00:35:45.156Z,0.00
2018-11-27T00:36:45.143Z,0.00
2018-11-27T00:37:45.135Z,0.00
2018-11-27T00:38:45.147Z,0.00
2018-11-27T00:39:45.109Z,0.00
2018-11-27T00:40:45.101Z,0.00
2018-11-27T00:41:45.085Z,0.00
2018-11-27T00:42:45.120Z,0.00
2018-11-27T00:43:45.088Z,0.00
2018-11-27T00:44:45.059Z,0.00
2018-11-27T00:45:45.044Z,0.00
2018-11-27T00:46:45.034Z,0.00
2018-11-27T00:47:45.021Z,0.00
2018-11-27T00:48:45.063Z,0.00
2018-11-27T00:49:44.998Z,0.00
2018-11-27T00:50:44.986Z,0.00
2018-11-27T00:51:44.979Z,0.00
2018-11-27T00:52:44.967Z,0.00
2018-11-27T00:53:44.977Z,0.00
2018-11-27T00:54:44.944Z,0.00
2018-11-27T00:55:44.931Z,0.00
2018-11-27T00:56:44.947Z,0.00
2018-11-27T00:57:44.909Z,0.00
2018-11-27T00:58:44.923Z,0.00
2018-11-27T00:59:44.885Z,0.00
2018-11-27T01:00:44.883Z,0.00
2018-11-27T01:01:44.863Z,0.00
2018-11-27T01:02:44.850Z,0.00
2018-11-27T01:03:44.866Z,0.00
2018-11-27T01:04:44.861Z,0.00
2018-11-27T01:05:44.819Z,0.00
2018-11-27T01:06:44.849Z,0.00
2018-11-27T01:07:44.797Z,0.00
2018-11-27T01:08:44.812Z,0.00
2018-11-27T01:09:44.773Z,0.00
2018-11-27T01:10:44.765Z,0.00
2018-11-27T01:11:44.755Z,0.00
2018-11-27T01:12:44.745Z,0.00
2018-11-27T01:13:44.773Z,0.00
2018-11-27T01:14:44.739Z,0.00
2018-11-27T01:15:44.706Z,0.00
2018-11-27T01:16:44.696Z,0.00
2018-11-27T01:17:44.687Z,0.00
2018-11-27T01:18:44.672Z,0.00
2018-11-27T01:19:44.730Z,0.00
2018-11-27T01:20:44.648Z,0.00
2018-11-27T01:21:44.639Z,0.00
2018-11-27T01:22:44.630Z,0.00
2018-11-27T01:23:44.619Z,0.00
2018-11-27T01:24:44.628Z,0.00
2018-11-27T01:25:44.591Z,0.00
2018-11-27T01:26:44.595Z,0.00
2018-11-27T01:27:44.575Z,0.00
2018-11-27T01:28:44.561Z,0.00
2018-11-27T01:29:44.571Z,0.00
2018-11-27T01:30:44.536Z,0.00
2018-11-27T01:31:44.526Z,0.00
2018-11-27T01:32:44.514Z,0.00
2018-11-27T01:33:44.534Z,0.00
2018-11-27T01:34:44.518Z,0.00
2018-11-27T01:35:44.478Z,0.00
2018-11-27T01:36:44.468Z,0.00
2018-11-27T01:37:44.457Z,0.00
2018-11-27T01:38:44.444Z,0.00
2018-11-27T01:39:44.458Z,0.00
2018-11-27T01:40:44.444Z,0.00
2018-11-27T01:41:44.409Z,0.00
2018-11-27T01:42:44.401Z,0.00
2018-11-27T01:43:44.385Z,0.00
2018-11-27T01:44:44.401Z,0.00
2018-11-27T01:45:44.364Z,0.00
2018-11-27T01:46:44.373Z,0.00
2018-11-27T01:47:44.348Z,0.00
2018-11-27T01:48:44.330Z,0.00
2018-11-27T01:49:44.348Z,0.00
2018-11-27T01:50:44.312Z,0.00
2018-11-27T01:51:44.299Z,0.00
2018-11-27T01:52:44.286Z,0.00
2018-11-27T01:53:44.274Z,0.00
2018-11-27T01:54:44.326Z,0.00
2018-11-27T01:55:44.252Z,0.00
2018-11-27T01:56:44.244Z,0.00
2018-11-27T01:57:44.230Z,0.00
2018-11-27T01:58:44.228Z,0.00
2018-11-27T01:59:44.239Z,0.00
2018-11-27T02:00:44.234Z,0.00
2018-11-27T02:01:44.187Z,0.00
2018-11-27T02:02:44.176Z,0.00
2018-11-27T02:03:44.164Z,0.00
2018-11-27T02:04:44.182Z,0.00
2018-11-27T02:05:44.147Z,0.00
2018-11-27T02:06:44.150Z,0.00
2018-11-27T02:07:44.121Z,0.00
2018-11-27T02:08:44.112Z,0.00
2018-11-27T02:09:44.127Z,0.00
2018-11-27T02:10:44.089Z,0.00
2018-11-27T02:11:44.078Z,0.00
2018-11-27T02:12:44.065Z,0.00
2018-11-27T02:13:44.061Z,0.00
2018-11-27T02:14:44.067Z,0.00
2018-11-27T02:15:44.035Z,0.00
2018-11-27T02:16:44.022Z,0.00
2018-11-27T02:17:44.007Z,0.00
2018-11-27T02:18:43.997Z,0.00
2018-11-27T02:19:44.032Z,0.00
2018-11-27T02:20:43.978Z,0.00
2018-11-27T02:21:43.962Z,0.00
2018-11-27T02:22:43.953Z,0.00
2018-11-27T02:23:43.942Z,0.00
2018-11-27T02:24:43.954Z,0.00
2018-11-27T02:25:43.922Z,0.00
2018-11-27T02:26:43.922Z,0.00
2018-11-27T02:27:43.897Z,0.00
2018-11-27T02:28:43.885Z,0.00
2018-11-27T02:29:43.897Z,0.00
2018-11-27T02:30:43.861Z,0.00
2018-11-27T02:31:43.851Z,0.00
2018-11-27T02:32:43.843Z,0.00
2018-11-27T02:33:43.853Z,0.00
2018-11-27T02:34:43.843Z,0.00
2018-11-27T02:35:43.806Z,0.00
2018-11-27T02:36:43.794Z,0.00
2018-11-27T02:37:43.782Z,0.00
2018-11-27T02:38:43.774Z,0.00
2018-11-27T02:39:43.786Z,0.00
2018-11-27T02:40:43.751Z,0.00
2018-11-27T02:41:43.753Z,0.00
2018-11-27T02:42:43.733Z,0.00
2018-11-27T02:43:43.716Z,0.00
2018-11-27T02:44:43.728Z,0.00
2018-11-27T02:45:43.692Z,0.00
2018-11-27T02:46:43.683Z,0.00
2018-11-27T02:47:43.685Z,0.00
2018-11-27T02:48:43.657Z,0.00
2018-11-27T02:49:43.676Z,0.00
2018-11-27T02:50:43.635Z,0.00
2018-11-27T02:51:43.630Z,0.00
2018-11-27T02:52:43.614Z,0.00
2018-11-27T02:53:43.623Z,0.00
2018-11-27T02:54:43.616Z,0.00
2018-11-27T02:55:43.580Z,0.00
2018-11-27T02:56:43.567Z,0.00
2018-11-27T02:57:43.557Z,0.00
2018-11-27T02:58:43.546Z,0.00
2018-11-27T02:59:43.602Z,0.00
2018-11-27T03:00:43.524Z,0.00
2018-11-27T03:01:43.517Z,0.00
2018-11-27T03:02:43.504Z,0.00
2018-11-27T03:03:43.496Z,0.00
2018-11-27T03:04:43.482Z,0.00
2018-11-27T03:05:43.494Z,0.00
2018-11-27T03:06:43.456Z,0.00
2018-11-27T03:07:43.446Z,0.00
2018-11-27T03:08:43.449Z,0.00
2018-11-27T03:09:43.448Z,0.00
2018-11-27T03:10:43.415Z,0.00
2018-11-27T03:11:43.426Z,0.00
2018-11-27T03:12:43.395Z,0.00
2018-11-27T03:13:43.380Z,0.00
2018-11-27T03:14:43.369Z,0.00
2018-11-27T03:15:43.381Z,0.00
2018-11-27T03:16:43.348Z,0.00
2018-11-27T03:17:43.343Z,0.00
2018-11-27T03:18:43.327Z,0.00
2018-11-27T03:19:43.318Z,0.00
2018-11-27T03:20:43.324Z,0.00
2018-11-27T03:21:43.289Z,0.00
2018-11-27T03:22:43.279Z,0.00
2018-11-27T03:23:43.286Z,0.00
2018-11-27T03:24:43.263Z,0.00
2018-11-27T03:25:43.278Z,0.00
2018-11-27T03:26:43.236Z,0.00
2018-11-27T03:27:43.222Z,0.00
2018-11-27T03:28:43.213Z,0.00
2018-11-27T03:29:43.204Z,0.00
2018-11-27T03:30:43.215Z,0.00
2018-11-27T03:31:43.205Z,0.00
2018-11-27T03:32:43.174Z,0.00
2018-11-27T03:33:43.166Z,0.00
2018-11-27T03:34:43.147Z,0.00
2018-11-27T03:35:43.158Z,0.00
2018-11-27T03:36:43.121Z,0.00
2018-11-27T03:37:43.128Z,0.00
2018-11-27T03:38:43.102Z,0.00
2018-11-27T03:39:43.091Z,0.00
2018-11-27T03:40:43.110Z,0.00
2018-11-27T03:41:43.074Z,0.00
2018-11-27T03:42:43.052Z,0.00
2018-11-27T03:43:43.079Z,0.00
2018-11-27T03:44:43.031Z,0.00
2018-11-27T03:45:43.045Z,0.00
2018-11-27T03:46:43.014Z,0.00
2018-11-27T03:47:43.000Z,0.00
2018-11-27T03:48:42.985Z,0.00
2018-11-27T03:49:42.975Z,0.00
2018-11-27T03:50:43.006Z,0.00
2018-11-27T03:57:26.560Z,0.00
2018-11-27T03:58:26.520Z,0.00
2018-11-27T03:59:26.509Z,0.00
2018-11-27T04:00:26.526Z,0.00
2018-11-27T04:01:26.486Z,0.00
2018-11-27T04:02:26.475Z,0.00
2018-11-27T04:03:26.465Z,0.00
2018-11-27T04:04:26.457Z,0.00
2018-11-27T04:05:26.476Z,0.00
2018-11-27T04:06:26.439Z,0.00
2018-11-27T04:07:26.419Z,0.00
2018-11-27T04:08:26.409Z,0.00
2018-11-27T04:09:26.397Z,0.00
2018-11-27T04:10:26.443Z,0.00
2018-11-27T04:11:26.378Z,0.00
2018-11-27T04:12:26.366Z,0.00
2018-11-27T04:13:26.353Z,0.00
2018-11-27T04:14:26.343Z,0.00
2018-11-27T04:15:26.390Z,0.00
2018-11-27T04:16:26.321Z,0.00
2018-11-27T04:17:26.309Z,0.00
2018-11-27T04:18:26.342Z,0.00
2018-11-27T04:19:26.286Z,0.00
2018-11-27T04:20:26.304Z,0.00
2018-11-27T04:21:26.264Z,0.00
2018-11-27T04:22:26.254Z,0.00
2018-11-27T04:23:26.266Z,0.00
2018-11-27T04:24:26.236Z,0.00
2018-11-27T04:25:26.249Z,0.00
2018-11-27T04:26:26.232Z,0.00
2018-11-27T04:27:26.211Z,0.00
2018-11-27T04:28:26.185Z,0.00
2018-11-27T04:29:26.185Z,0.00
2018-11-27T04:30:26.171Z,0.00
2018-11-27T04:31:26.208Z,0.00
2018-11-27T04:32:26.141Z,0.00
2018-11-27T04:33:26.129Z,0.00
2018-11-27T04:34:26.133Z,0.00
2018-11-27T04:35:26.138Z,0.00
2018-11-27T04:36:26.098Z,0.00
2018-11-27T04:37:26.083Z,0.00
2018-11-27T04:38:26.073Z,0.00
2018-11-27T04:39:26.065Z,0.00
2018-11-27T04:40:26.055Z,0.00
2018-11-27T04:41:26.105Z,0.00
2018-11-27T04:42:26.028Z,0.00
2018-11-27T04:43:26.019Z,0.00
2018-11-27T04:44:26.007Z,0.00
2018-11-27T04:45:25.998Z,0.00
2018-11-27T04:46:26.011Z,0.00
2018-11-27T04:47:26.031Z,0.00
2018-11-27T04:48:25.997Z,0.00
2018-11-27T04:49:25.951Z,0.00
2018-11-27T04:50:25.942Z,0.00
2018-11-27T04:51:25.958Z,0.00
2018-11-27T04:52:25.920Z,0.00
2018-11-27T04:53:25.906Z,0.00
2018-11-27T04:54:25.910Z,0.00
2018-11-27T04:55:25.929Z,0.00
2018-11-27T04:56:25.901Z,0.00
2018-11-27T04:57:25.862Z,0.00
2018-11-27T04:58:25.855Z,0.00
2018-11-27T04:59:25.839Z,0.00
2018-11-27T05:00:25.826Z,0.00
2018-11-27T05:01:25.871Z,0.00
2018-11-27T05:02:25.806Z,0.00
2018-11-27T05:03:25.796Z,0.00
2018-11-27T05:04:25.783Z,0.00
2018-11-27T05:05:25.774Z,0.00
2018-11-27T05:06:25.790Z,0.00
2018-11-27T05:07:25.752Z,0.00
2018-11-27T05:08:25.760Z,0.00
2018-11-27T05:09:25.727Z,0.00
2018-11-27T05:10:25.719Z,0.00
2018-11-27T05:11:25.755Z,0.00
2018-11-27T05:12:25.693Z,0.00
2018-11-27T05:13:25.684Z,0.00
2018-11-27T05:14:25.689Z,0.00
2018-11-27T05:15:25.670Z,0.00
2018-11-27T05:16:25.677Z,0.00
2018-11-27T05:17:25.641Z,0.00
2018-11-27T05:18:25.626Z,0.00
2018-11-27T05:19:25.618Z,0.00
2018-11-27T05:20:25.620Z,0.00
2018-11-27T05:21:25.621Z,0.00
2018-11-27T05:22:25.582Z,0.00
2018-11-27T05:23:25.570Z,0.00
2018-11-27T05:24:25.560Z,0.00
2018-11-27T05:25:25.549Z,0.00
2018-11-27T05:26:25.596Z,0.00
2018-11-27T05:27:25.528Z,0.00
2018-11-27T05:28:25.515Z,0.00
2018-11-27T05:29:25.504Z,0.00
2018-11-27T05:30:25.501Z,0.00
2018-11-27T05:31:25.510Z,0.00
2018-11-27T05:32:25.491Z,0.00
2018-11-27T05:33:25.460Z,0.00
2018-11-27T05:34:25.450Z,0.00
2018-11-27T05:35:25.437Z,0.00
2018-11-27T05:36:25.453Z,0.00
2018-11-27T05:37:25.416Z,0.00
2018-11-27T05:38:25.406Z,0.00
2018-11-27T05:39:25.391Z,0.00
2018-11-27T05:40:25.401Z,0.00
2018-11-27T05:41:25.398Z,0.00
2018-11-27T05:42:25.357Z,0.00
2018-11-27T05:43:25.348Z,0.00
2018-11-27T05:44:25.339Z,0.00
2018-11-27T05:45:25.324Z,0.00
2018-11-27T05:46:25.339Z,0.00
2018-11-27T05:47:25.327Z,0.00
2018-11-27T05:48:25.293Z,0.00
2018-11-27T05:49:25.283Z,0.00
2018-11-27T05:50:25.268Z,0.00
2018-11-27T05:51:25.287Z,0.00
2018-11-27T05:52:25.248Z,0.00
2018-11-27T05:53:25.243Z,0.00
2018-11-27T05:54:25.223Z,0.00
2018-11-27T05:55:25.247Z,0.00
2018-11-27T05:56:25.241Z,0.00
2018-11-27T05:57:25.191Z,0.00
2018-11-27T05:58:25.180Z,0.00
2018-11-27T05:59:25.168Z,0.00
2018-11-27T06:00:25.161Z,0.00
2018-11-27T06:01:25.213Z,0.00
2018-11-27T06:02:25.135Z,0.00
2018-11-27T06:03:25.125Z,0.00
2018-11-27T06:04:25.112Z,0.00
2018-11-27T06:05:25.104Z,0.00
2018-11-27T06:06:25.118Z,0.00
2018-11-27T06:07:25.100Z,0.00
2018-11-27T06:08:25.071Z,0.00
2018-11-27T06:09:25.061Z,0.00
2018-11-27T06:10:25.057Z,0.00
2018-11-27T06:11:25.069Z,0.00
2018-11-27T06:12:25.025Z,0.00
2018-11-27T06:13:25.041Z,0.00
2018-11-27T06:14:25.005Z,0.00
2018-11-27T06:15:24.996Z,0.00
2018-11-27T06:16:25.010Z,0.00
2018-11-27T06:17:24.971Z,0.00
2018-11-27T06:18:24.958Z,0.00
2018-11-27T06:19:24.951Z,0.00
2018-11-27T06:20:24.955Z,0.00
2018-11-27T06:21:24.928Z,0.00
2018-11-27T06:22:24.943Z,0.00
2018-11-27T06:23:24.901Z,0.00
2018-11-27T06:24:24.891Z,0.00
2018-11-27T06:25:24.882Z,0.00
2018-11-27T06:26:24.903Z,0.00
2018-11-27T06:27:24.886Z,0.00
2018-11-27T06:28:24.847Z,0.00
2018-11-27T06:29:24.834Z,0.00
2018-11-27T06:30:24.825Z,0.00
2018-11-27T06:31:24.814Z,0.00
2018-11-27T06:32:24.841Z,0.00
2018-11-27T06:33:24.828Z,0.00
2018-11-27T06:34:24.785Z,0.00
2018-11-27T06:35:24.772Z,4.00
2018-11-27T06:36:24.757Z,4.00
2018-11-27T06:37:24.775Z,4.00
2018-11-27T06:38:24.733Z,4.00
2018-11-27T06:39:24.739Z,4.00
2018-11-27T06:40:24.710Z,8.00
2018-11-27T06:41:24.703Z,4.00
2018-11-27T06:42:24.718Z,4.00
2018-11-27T06:43:24.678Z,8.00
2018-11-27T06:44:24.668Z,8.00
2018-11-27T06:45:24.657Z,8.00
2018-11-27T06:46:24.666Z,16.00
2018-11-27T06:47:24.661Z,16.00
2018-11-27T06:48:24.624Z,16.00
2018-11-27T06:49:24.614Z,20.00
2018-11-27T06:50:24.604Z,20.00
2018-11-27T06:51:24.589Z,24.00
2018-11-27T06:52:24.604Z,32.00
2018-11-27T06:53:24.589Z,32.00
2018-11-27T06:54:24.561Z,36.00
2018-11-27T06:55:24.544Z,44.00
2018-11-27T06:56:24.532Z,48.00
2018-11-27T06:57:24.554Z,52.00
2018-11-27T06:58:24.510Z,56.00
2018-11-27T06:59:24.525Z,60.00
2018-11-27T07:00:24.487Z,68.00
2018-11-27T07:01:24.476Z,76.00
2018-11-27T07:02:24.496Z,80.00
2018-11-27T07:03:24.459Z,88.00
2018-11-27T07:04:24.442Z,92.00
2018-11-27T07:05:24.435Z,104.00
2018-11-27T07:06:24.448Z,116.00
2018-11-27T07:07:24.438Z,120.00
2018-11-27T07:08:24.402Z,132.00
2018-11-27T07:09:24.386Z,148.00
2018-11-27T07:10:24.375Z,160.00
2018-11-27T07:11:24.366Z,176.00
2018-11-27T07:12:24.414Z,188.00
2018-11-27T07:13:24.342Z,196.00
2018-11-27T07:14:24.331Z,212.00
2018-11-27T07:15:24.325Z,220.00
2018-11-27T07:16:24.309Z,232.00
2018-11-27T07:17:24.328Z,244.00
2018-11-27T07:18:24.305Z,260.00
2018-11-27T07:19:24.276Z,280.00
2018-11-27T07:20:24.265Z,296.00
2018-11-27T07:21:24.262Z,312.00
2018-11-27T07:22:24.275Z,332.00
2018-11-27T07:23:24.233Z,348.00
2018-11-27T07:24:24.265Z,364.00
2018-11-27T07:25:24.211Z,384.00
2018-11-27T07:26:24.201Z,400.00
2018-11-27T07:27:24.219Z,416.00
2018-11-27T07:28:24.177Z,432.00
2018-11-27T07:29:24.167Z,444.00
2018-11-27T07:30:24.177Z,460.00
2018-11-27T07:31:24.145Z,496.00
2018-11-27T07:32:24.162Z,484.00
2018-11-27T07:33:24.124Z,500.00
2018-11-27T07:34:24.111Z,516.00
2018-11-27T07:35:24.103Z,532.00
2018-11-27T07:36:24.100Z,552.00
2018-11-27T07:37:24.109Z,568.00
2018-11-27T07:38:24.070Z,588.00
2018-11-27T07:39:24.065Z,608.00
2018-11-27T07:40:24.049Z,628.00
2018-11-27T07:41:24.035Z,648.00
2018-11-27T07:42:24.052Z,676.00
2018-11-27T07:43:24.031Z,704.00
2018-11-27T07:44:24.003Z,736.00
2018-11-27T07:45:23.991Z,772.00
2018-11-27T07:46:23.979Z,804.00
2018-11-27T07:47:23.997Z,824.00
2018-11-27T07:48:23.959Z,840.00
2018-11-27T07:49:23.956Z,856.00
2018-11-27T07:50:23.934Z,880.00
2018-11-27T07:51:23.922Z,900.00
2018-11-27T07:52:23.941Z,908.00
2018-11-27T07:53:23.904Z,904.00
2018-11-27T07:54:23.890Z,900.00
2018-11-27T07:55:23.880Z,912.00
2018-11-27T07:56:23.884Z,936.00
2018-11-27T07:57:23.887Z,972.00
2018-11-27T07:58:23.849Z,1024.00
2018-11-27T07:59:23.837Z,1076.00
2018-11-27T08:00:23.828Z,1120.00
2018-11-27T08:01:23.815Z,1140.00
2018-11-27T08:02:23.831Z,1164.00
2018-11-27T08:03:23.802Z,1204.00
2018-11-27T08:04:23.780Z,1256.00
2018-11-27T08:05:23.770Z,1304.00
2018-11-27T08:06:23.773Z,1340.00
2018-11-27T08:07:23.778Z,1356.00
2018-11-27T08:08:23.739Z,1356.00
2018-11-27T08:09:27.097Z,1352.00
2018-11-27T08:10:23.718Z,1340.00
2018-11-27T08:11:23.727Z,1336.00
2018-11-27T08:12:23.722Z,1348.00
2018-11-27T08:13:23.681Z,1380.00
2018-11-27T08:14:23.672Z,1436.00
2018-11-27T08:15:23.658Z,1508.00
2018-11-27T08:16:23.645Z,1600.00
2018-11-27T08:17:23.697Z,1696.00
2018-11-27T08:18:23.626Z,1804.00
2018-11-27T08:19:23.615Z,1912.00
2018-11-27T08:20:23.607Z,2012.00
2018-11-27T08:21:23.592Z,2084.00
2018-11-27T08:22:23.582Z,2132.00
2018-11-27T08:23:23.600Z,2168.00
2018-11-27T08:24:23.568Z,2212.00
2018-11-27T08:25:23.545Z,2236.00
2018-11-27T08:26:23.552Z,2268.00
2018-11-27T08:27:23.604Z,2300.00
2018-11-27T08:28:23.549Z,2344.00
2018-11-27T08:29:23.503Z,2388.00
2018-11-27T08:30:23.490Z,2408.00
2018-11-27T08:31:23.496Z,2436.00
2018-11-27T08:32:23.470Z,2464.00
2018-11-27T08:33:23.485Z,2472.00
2018-11-27T08:34:23.445Z,2480.00
2018-11-27T08:35:23.432Z,2516.00
2018-11-27T08:36:23.428Z,2536.00
2018-11-27T08:37:23.441Z,2564.00
2018-11-27T08:38:23.428Z,2620.00
2018-11-27T08:39:23.386Z,2656.00
2018-11-27T08:40:23.377Z,2680.00
2018-11-27T08:41:23.979Z,2704.00
2018-11-27T08:42:23.354Z,2744.00
2018-11-27T08:43:23.372Z,2800.00
2018-11-27T08:44:23.331Z,2852.00
2018-11-27T08:45:23.320Z,2936.00
2018-11-27T08:46:23.334Z,3032.00
2018-11-27T08:47:23.300Z,3152.00
2018-11-27T08:48:23.314Z,3264.00
2018-11-27T08:49:23.273Z,3368.00
2018-11-27T08:50:23.263Z,3452.00
2018-11-27T08:51:23.249Z,3524.00
2018-11-27T08:52:23.239Z,3580.00
2018-11-27T08:53:23.287Z,3612.00
2018-11-27T08:54:23.215Z,3656.00
2018-11-27T08:55:23.212Z,3724.00
2018-11-27T08:56:23.192Z,3848.00
2018-11-27T08:57:23.186Z,3932.00
2018-11-27T08:58:23.199Z,3964.00
2018-11-27T08:59:23.158Z,3988.00
2018-11-27T09:00:23.148Z,4000.00
2018-11-27T09:01:23.159Z,3972.00
2018-11-27T09:02:23.125Z,3952.00
2018-11-27T09:03:23.149Z,3932.00
2018-11-27T09:04:23.104Z,3896.00
2018-11-27T09:05:23.092Z,3836.00
2018-11-27T09:06:23.090Z,3744.00
2018-11-27T09:07:23.070Z,3684.00
2018-11-27T09:08:23.092Z,3636.00
2018-11-27T09:09:23.115Z,3588.00
2018-11-27T09:10:23.035Z,3544.00
2018-11-27T09:11:23.025Z,3500.00
2018-11-27T09:12:23.049Z,3428.00
2018-11-27T09:13:23.030Z,3364.00
2018-11-27T09:14:22.991Z,3296.00
2018-11-27T09:15:22.983Z,3268.00
2018-11-27T09:16:22.975Z,3252.00
2018-11-27T09:17:22.989Z,3260.00
2018-11-27T09:18:22.978Z,3284.00
2018-11-27T09:19:22.938Z,3308.00
2018-11-27T09:20:22.923Z,3328.00
2018-11-27T09:21:22.916Z,3328.00
2018-11-27T09:22:22.902Z,3320.00
2018-11-27T09:23:22.924Z,3268.00
2018-11-27T09:24:22.949Z,3172.00
2018-11-27T09:25:22.867Z,3092.00
2018-11-27T09:26:22.857Z,3032.00
2018-11-27T09:27:22.848Z,3004.00
2018-11-27T09:28:22.864Z,3000.00
2018-11-27T09:29:22.825Z,3024.00
2018-11-27T09:30:22.812Z,3076.00
2018-11-27T09:31:22.800Z,3168.00
2018-11-27T09:32:22.839Z,3324.00
2018-11-27T09:33:22.806Z,3508.00
2018-11-27T09:34:22.766Z,3700.00
2018-11-27T09:35:22.757Z,3848.00
2018-11-27T09:36:22.751Z,3924.00
2018-11-27T09:37:22.733Z,3940.00
2018-11-27T09:38:22.756Z,3904.00
2018-11-27T09:39:22.711Z,3820.00
2018-11-27T09:40:22.720Z,3744.00
2018-11-27T09:41:22.703Z,3752.00
2018-11-27T09:42:22.677Z,3844.00
2018-11-27T09:43:22.694Z,3952.00
2018-11-27T09:44:22.681Z,4016.00
2018-11-27T09:45:22.650Z,4032.00
2018-11-27T09:46:22.633Z,4116.00
2018-11-27T09:47:22.621Z,4364.00
2018-11-27T09:48:22.644Z,4700.00
2018-11-27T09:49:22.604Z,4976.00
2018-11-27T09:50:22.587Z,5176.00
2018-11-27T09:51:22.615Z,5344.00
2018-11-27T09:52:22.570Z,5476.00
2018-11-27T09:53:22.583Z,5528.00
2018-11-27T09:54:22.543Z,5564.00
2018-11-27T09:55:22.535Z,5556.00
2018-11-27T09:56:22.523Z,5540.00
2018-11-27T09:57:22.509Z,5496.00
2018-11-27T09:58:22.564Z,5412.00
2018-11-27T09:59:22.488Z,5316.00
2018-11-27T10:00:22.474Z,5244.00
2018-11-27T10:01:22.464Z,5156.00
2018-11-27T10:02:22.458Z,5084.00
2018-11-27T10:03:22.472Z,5004.00
2018-11-27T10:04:22.439Z,4936.00
2018-11-27T10:05:22.423Z,4908.00
2018-11-27T10:06:22.420Z,4908.00
2018-11-27T10:07:22.402Z,4916.00
2018-11-27T10:08:22.415Z,4932.00
2018-11-27T10:09:22.377Z,4960.00
2018-11-27T10:10:22.364Z,5000.00
2018-11-27T10:11:22.352Z,5068.00
2018-11-27T10:12:22.390Z,5152.00
2018-11-27T10:13:22.334Z,5252.00
2018-11-27T10:14:22.349Z,5364.00
2018-11-27T10:15:22.312Z,5488.00
2018-11-27T10:16:22.296Z,5616.00
2018-11-27T10:17:22.288Z,5704.00
2018-11-27T10:18:22.277Z,5784.00
2018-11-27T10:19:26.721Z,5860.00
2018-11-27T10:20:23.256Z,5940.00
2018-11-27T10:21:22.241Z,5968.00
2018-11-27T10:22:22.228Z,5880.00
2018-11-27T10:23:22.219Z,5748.00
2018-11-27T10:24:22.234Z,5676.00
2018-11-27T10:25:22.228Z,5656.00
2018-11-27T10:26:22.185Z,5620.00
2018-11-27T10:27:22.175Z,5536.00
2018-11-27T10:28:22.162Z,5408.00
2018-11-27T10:29:22.177Z,5236.00
2018-11-27T10:30:22.154Z,5112.00
2018-11-27T10:31:22.128Z,5068.00
2018-11-27T10:32:22.115Z,5036.00
2018-11-27T10:33:23.090Z,5032.00
2018-11-27T10:34:22.121Z,4996.00
2018-11-27T10:35:22.081Z,4932.00
2018-11-27T10:36:22.078Z,4868.00
2018-11-27T10:37:22.060Z,4828.00
2018-11-27T10:38:22.057Z,4772.00
2018-11-27T10:39:22.067Z,4728.00
2018-11-27T10:40:22.024Z,4652.00
2018-11-27T10:41:22.015Z,4608.00
2018-11-27T10:42:22.002Z,4564.00
2018-11-27T10:43:22.013Z,4492.00
2018-11-27T10:44:22.014Z,4408.00
2018-11-27T10:45:21.975Z,4336.00
2018-11-27T10:46:21.959Z,4300.00
2018-11-27T10:47:21.948Z,4268.00
2018-11-27T10:48:21.941Z,4236.00
2018-11-27T10:49:21.953Z,4196.00
2018-11-27T10:50:21.913Z,4212.00
2018-11-27T10:51:21.928Z,4296.00
2018-11-27T10:52:21.895Z,4392.00
2018-11-27T10:53:21.879Z,4456.00
2018-11-27T10:54:21.895Z,4496.00
2018-11-27T10:55:21.861Z,4524.00
2018-11-27T10:56:21.845Z,4564.00
2018-11-27T10:57:21.844Z,4600.00
2018-11-27T10:58:21.823Z,4700.00
2018-11-27T10:59:21.839Z,4852.00
2018-11-27T11:00:21.801Z,5060.00
2018-11-27T11:01:21.789Z,5288.00
2018-11-27T11:02:21.791Z,5464.00
2018-11-27T11:03:21.788Z,5532.00
2018-11-27T11:04:21.787Z,5524.00
2018-11-27T11:05:21.743Z,5532.00
2018-11-27T11:06:21.732Z,5524.00
2018-11-27T11:07:21.730Z,5516.00
2018-11-27T11:08:21.714Z,5528.00
2018-11-27T11:09:21.739Z,5532.00
2018-11-27T11:10:21.686Z,5544.00
2018-11-27T11:11:21.678Z,5540.00
2018-11-27T11:12:21.665Z,5528.00
2018-11-27T11:13:21.675Z,5540.00
2018-11-27T11:14:21.673Z,5580.00
2018-11-27T11:15:21.629Z,5660.00
2018-11-27T11:16:21.632Z,5724.00
2018-11-27T11:17:21.607Z,5728.00
2018-11-27T11:18:21.607Z,5728.00
2018-11-27T11:19:21.619Z,5724.00
2018-11-27T11:20:21.574Z,5724.00
2018-11-27T11:21:21.565Z,5748.00
2018-11-27T11:22:21.603Z,5788.00
2018-11-27T11:23:21.547Z,5852.00
2018-11-27T11:24:21.561Z,5948.00
2018-11-27T11:25:21.518Z,6040.00
2018-11-27T11:26:21.508Z,6092.00
2018-11-27T11:27:21.495Z,6076.00
2018-11-27T11:28:21.494Z,5996.00
2018-11-27T11:29:21.504Z,5892.00
2018-11-27T11:30:21.461Z,5748.00
2018-11-27T11:31:21.451Z,5632.00
2018-11-27T11:32:21.442Z,5476.00
2018-11-27T11:33:21.428Z,5420.00
2018-11-27T11:34:21.447Z,5380.00
2018-11-27T11:35:21.411Z,5348.00
2018-11-27T11:36:21.393Z,5304.00
2018-11-27T11:37:21.400Z,5232.00
2018-11-27T11:38:21.376Z,5160.00
2018-11-27T11:39:21.386Z,5120.00
2018-11-27T11:40:21.376Z,5084.00
2018-11-27T11:41:21.356Z,5056.00
2018-11-27T11:42:21.329Z,5040.00
2018-11-27T11:43:21.315Z,5052.00
2018-11-27T11:44:21.335Z,5104.00
2018-11-27T11:45:21.292Z,5208.00
2018-11-27T11:46:21.282Z,5280.00
2018-11-27T11:47:21.274Z,5364.00
2018-11-27T11:48:21.263Z,5376.00
2018-11-27T11:49:21.277Z,5340.00
2018-11-27T11:50:21.239Z,5280.00
2018-11-27T11:51:21.241Z,5184.00
2018-11-27T11:52:21.215Z,5064.00
2018-11-27T11:53:21.202Z,4944.00
2018-11-27T11:54:21.216Z,4836.00
2018-11-27T11:55:21.178Z,4756.00
2018-11-27T11:56:21.170Z,4660.00
2018-11-27T11:57:21.167Z,4588.00
2018-11-27T11:58:21.145Z,4528.00
2018-11-27T11:59:21.147Z,4524.00
2018-11-27T12:00:21.156Z,4508.00
2018-11-27T12:01:21.110Z,4480.00
2018-11-27T12:02:21.146Z,4428.00
2018-11-27T12:03:21.087Z,4348.00
2018-11-27T12:04:21.105Z,4268.00
2018-11-27T12:05:25.025Z,4196.00
2018-11-27T12:06:21.058Z,4112.00
2018-11-27T12:07:21.043Z,4044.00
2018-11-27T12:08:21.032Z,3996.00
2018-11-27T12:09:21.022Z,3956.00
2018-11-27T12:10:21.036Z,3960.00
2018-11-27T12:11:21.001Z,4028.00
2018-11-27T12:12:20.986Z,4148.00
2018-11-27T12:13:20.988Z,4324.00
2018-11-27T12:14:20.965Z,4524.00
2018-11-27T12:15:20.982Z,4636.00
2018-11-27T12:16:20.950Z,4712.00
2018-11-27T12:17:20.930Z,4700.00
2018-11-27T12:18:20.924Z,4624.00
2018-11-27T12:19:20.907Z,4500.00
2018-11-27T12:20:20.924Z,4404.00
2018-11-27T12:21:20.898Z,4412.00
2018-11-27T12:22:20.873Z,4540.00
2018-11-27T12:23:20.860Z,4752.00
2018-11-27T12:24:20.863Z,4892.00
2018-11-27T12:25:24.232Z,5076.00
2018-11-27T12:26:20.829Z,5344.00
2018-11-27T12:27:20.819Z,5684.00
2018-11-27T12:28:20.806Z,5964.00
2018-11-27T12:29:20.804Z,6100.00
2018-11-27T12:30:20.821Z,6168.00
2018-11-27T12:31:20.771Z,6104.00
2018-11-27T12:32:20.760Z,5908.00
2018-11-27T12:33:20.768Z,5652.00
2018-11-27T12:34:20.739Z,5424.00
2018-11-27T12:35:20.775Z,5288.00
2018-11-27T12:36:20.723Z,5264.00
2018-11-27T12:37:20.706Z,5420.00
2018-11-27T12:38:20.694Z,5628.00
2018-11-27T12:39:20.683Z,5864.00
2018-11-27T12:40:20.702Z,6000.00
2018-11-27T12:41:20.660Z,5976.00
2018-11-27T12:42:20.652Z,5716.00
2018-11-27T12:43:20.639Z,5408.00
2018-11-27T12:44:20.625Z,5072.00
2018-11-27T12:45:20.664Z,4724.00
2018-11-27T12:46:20.606Z,4476.00
2018-11-27T12:47:20.590Z,4408.00
2018-11-27T12:48:20.586Z,4256.00
2018-11-27T12:49:20.591Z,4096.00
2018-11-27T12:50:20.587Z,3948.00